< < Back
Terminal Aerodrome Forecast


Current Version              Previous Versions:   1  2  3  4  5  6  7  8  9  

Terminal Aerodrome Forecast

399
FTUS44 KBMX 181700
TAFTCL
TAF
KTCL 181723Z 1818/1918 VRB04KT P6SM SCT250=



Latest METAR

847
SAUS70 KWBC 190600
MTRTCL
METAR KTCL 190553Z AUTO 06003KT 10SM -RA OVC075 21/20 A2999 RMK AO2
RAB35 SLP154 P0001 60035 T02110200 10278 20211 403220172
50008


USA.gov is the U.S. government's official web portal to all federal, state and local government web resources and services.